• Join FlightAware (Why Join?)
  • Login
  • US Flag 
12:04PM EDT


 

Airport Tracker/Info


-or-


 

Live Flight TrackerFlight Track Log ✈ DAL6091 ✈ 01-May-2013 ✈ KRIC - KJFK

Flight Track Log - Related Links

Times and Time Zones

All times are in EDT time to prevent confusion due to time zone crossing. See the DAL6091 flight status page for this flight to view local times or setup timezone preferences in your user account.

Time Position Orientation Groundspeed Altitude Reporting Facility
EDT Latitude Longitude Course Direction KTS MPH feet Rate Location/Type
12:42PM 37.5500 -77.3167 38° Northeast 165 190 2,500  Level Potomac TRACON
12:43PM 37.5833 -77.2833 38° Northeast 181 208 5,600 2,580 Climbing Potomac TRACON
12:44PM 37.7271 -77.0729 38° Northeast  Level FlightAware Approximate
12:44PM 37.6156 -77.2356 50° Northeast 215 247 7,700  Level Washington Center
12:45PM 37.8052 -76.9948 38° Northeast  Level FlightAware Approximate
12:45PM 37.6642 -77.1789 43° Northeast 226 260 9,000  Level Washington Center
12:46PM 37.8834 -76.9167 38° Northeast  Level FlightAware Approximate
12:46PM 37.7150 -77.1197 43° Northeast 231 266 9,100  Level Washington Center
12:47PM 37.9615 -76.8385 38° Northeast  Level FlightAware Approximate
12:47PM 37.7639 -77.0603 44° Northeast 236 272 11,000  Level Washington Center
12:48PM 37.8231 -76.9903 43° Northeast 256 295 12,300 1,260 Climbing Washington Center
12:49PM 37.8928 -76.9100 42° Northeast 295 339 13,600 1,320 Climbing Washington Center
12:50PM 37.9667 -76.8219 43° Northeast 334 384 15,000 1,440 Climbing Washington Center
12:51PM 38.0406 -76.7308 44° Northeast 352 405 16,500 960 Climbing Washington Center
12:52PM 38.1164 -76.6369 44° Northeast 364 419 17,000 240 Climbing Washington Center
12:53PM 38.1903 -76.5322 48° Northeast 376 433 17,000  Level Washington Center
12:54PM 38.2642 -76.4300 47° Northeast 382 440 17,000  Level Washington Center
12:55PM 38.3439 -76.3461 40° Northeast 378 435 17,000  Level Washington Center
12:56PM 38.4339 -76.2650 35° Northeast 378 435 17,000  Level Washington Center
12:57PM 38.5242 -76.1808 36° Northeast 384 442 17,000 360 Level Washington Center
12:58PM 38.6247 -76.0858 36° Northeast 403 464 17,800 900 Climbing Washington Center
12:59PM 38.7083 -75.9961 40° Northeast 403 464 18,900 600 Climbing Washington Center
01:00PM 38.7711 -75.8767 56° Northeast 393 452 19,000  Climbing Washington Center
01:01PM 38.8361 -75.7594 55° Northeast 393 452 19,000  Level Washington Center
01:02PM 38.9008 -75.6422 55° Northeast 398 458 19,000  Level Washington Center
01:03PM 38.9611 -75.5250 56° Northeast 398 458 19,000  Level Washington Center
01:04PM 39.0256 -75.4072 55° Northeast 398 458 19,000  Level Washington Center
01:05PM 39.0858 -75.2842 58° Northeast 398 458 19,000 -180 Level Washington Center
01:06PM 39.1500 -75.1606 56° Northeast 398 458 18,700 -540 Descending Washington Center
01:07PM 39.2122 -75.0453 55° Northeast 398 458 18,000 -360 Descending Washington Center
01:08PM 39.2761 -74.9267 55° Northeast 398 458 18,000  Level Washington Center
01:09PM 39.3358 -74.8081 57° Northeast 398 458 18,000  Level Washington Center
01:11PM 39.4558 -74.5808 56° Northeast 399 459 18,000  Level New York Center
01:12PM 39.5247 -74.4500 56° Northeast 399 459 18,000  Level New York Center
01:13PM 39.5886 -74.3319 55° Northeast 399 459 18,000  Level New York Center
01:14PM 39.6481 -74.2272 54° Northeast 399 459 18,100 -900 Climbing New York Center
01:15PM 39.7264 -74.1178 47° Northeast 386 444 16,300 -2,040 Descending New York Center
01:16PM 39.8017 -74.0322 41° Northeast 364 419 14,100 -2,040 Descending New York Center
01:17PM 39.8767 -73.9628 35° Northeast 338 389 12,300 -1,560 Descending New York Center
01:18PM 39.9403 -73.9194 28° Northeast 300 345 11,000 -660 Descending New York Center
01:19PM 40.0125 -73.8686 28° Northeast 294 338 11,000 -600 Level New York Center
01:20PM 40.0944 -73.8425 14° North 273 314 9,800 -1,680 Descending New York Center
01:21PM 40.1500 -73.7833 39° Northeast 269 310 7,700 -1,980 Descending New York TRACON
01:22PM 40.2167 -73.7500 21° North 257 296 5,900 -1,560 Descending New York TRACON
01:23PM 40.2667 -73.8167 315° West 268 308 4,600 -1,200 Descending New York TRACON
01:24PM 40.3167 -73.8833 315° West 266 306 3,600 -840 Descending New York TRACON
01:25PM 40.3708 -73.9500 317° Northwest 254 292 3,000 -360 Descending New York Center
01:26PM 40.4225 -73.9661 347° North 212 244 3,000  Level New York Center
01:27PM 40.4850 -73.9664 360° North 202 232 3,000 -120 Level New York Center
01:28PM 40.5311 -73.9603 North 181 208 2,800 -660 Descending New York Center
01:29PM 40.5717 -73.9267 32° Northeast 166 191 1,700 -660 Descending New York Center
01:30PM 40.6167 -73.9000 24° Northeast 163 188 1,500 -240 Descending New York TRACON